Terminal Aerodrome Forecast
Issued by NWS

Home | Current Version | Previous Version | Text Only | Print | Product List | Glossary Off
Versions: 1 2 3 4 5 6 7 8 9 10 11 12 13 14 15 16 17 18

216
FTUS43 KGRB 190525
TAFAUW
TAF
KAUW 190525Z 1906/2006 33004KT P6SM SCT110
      TEMPO 1906/1908 3SM BR
     FM190800 35004KT 3SM BR SCT120
      TEMPO 1908/1912 1SM BR BKN002
     FM191200 35004KT P6SM SKC
     FM191500 36004KT P6SM SCT035
     FM192000 16006KT P6SM SKC
     FM200000 17005KT P6SM SCT040 OVC100
      TEMPO 2002/2006 2SM -TSRA BKN040CB=

USA.gov is the U.S. government's official web portal to all federal, state and local government web resources and services.